sensor_id;sensor_type;location;lat;lon;timestamp;pressure;altitude;pressure_sealevel;temperature;humidity
36378;BME280;22402;42.746;23.606;2023-05-11T00:00:42;93708.84;;;13.82;78.59
36378;BME280;22402;42.746;23.606;2023-05-11T00:03:08;93717.34;;;13.76;78.73
36378;BME280;22402;42.746;23.606;2023-05-11T00:05:34;93713.75;;;13.77;78.80
36378;BME280;22402;42.746;23.606;2023-05-11T00:07:59;93709.66;;;13.75;78.70
36378;BME280;22402;42.746;23.606;2023-05-11T00:10:27;93703.59;;;13.74;79.02
36378;BME280;22402;42.746;23.606;2023-05-11T00:12:52;93712.41;;;13.73;78.87
36378;BME280;22402;42.746;23.606;2023-05-11T00:15:17;93708.28;;;13.71;78.89
36378;BME280;22402;42.746;23.606;2023-05-11T00:17:43;93711.09;;;13.69;78.64
36378;BME280;22402;42.746;23.606;2023-05-11T00:20:09;93714.66;;;13.68;78.95
36378;BME280;22402;42.746;23.606;2023-05-11T00:22:35;93707.28;;;13.63;79.05
36378;BME280;22402;42.746;23.606;2023-05-11T00:25:01;93713.03;;;13.67;79.25
36378;BME280;22402;42.746;23.606;2023-05-11T00:27:26;93710.59;;;13.65;79.18
36378;BME280;22402;42.746;23.606;2023-05-11T00:29:52;93693.00;;;13.58;79.13
36378;BME280;22402;42.746;23.606;2023-05-11T00:32:17;93703.03;;;13.62;79.16
36378;BME280;22402;42.746;23.606;2023-05-11T00:34:43;93708.28;;;13.62;79.11
36378;BME280;22402;42.746;23.606;2023-05-11T00:37:08;93713.00;;;13.59;79.18
36378;BME280;22402;42.746;23.606;2023-05-11T00:39:33;93706.63;;;13.61;79.29
36378;BME280;22402;42.746;23.606;2023-05-11T00:42:04;93708.72;;;13.58;79.41
36378;BME280;22402;42.746;23.606;2023-05-11T00:44:30;93713.84;;;13.59;79.17
36378;BME280;22402;42.746;23.606;2023-05-11T00:46:56;93716.44;;;13.59;78.92
36378;BME280;22402;42.746;23.606;2023-05-11T00:49:21;93715.59;;;13.59;79.13
36378;BME280;22402;42.746;23.606;2023-05-11T00:51:47;93717.59;;;13.57;79.22
36378;BME280;22402;42.746;23.606;2023-05-11T00:54:13;93715.78;;;13.57;79.14
36378;BME280;22402;42.746;23.606;2023-05-11T00:56:43;93712.34;;;13.57;79.05
36378;BME280;22402;42.746;23.606;2023-05-11T00:59:09;93715.91;;;13.56;79.30
36378;BME280;22402;42.746;23.606;2023-05-11T01:01:37;93714.28;;;13.55;79.28
36378;BME280;22402;42.746;23.606;2023-05-11T01:04:03;93704.94;;;13.52;79.20
36378;BME280;22402;42.746;23.606;2023-05-11T01:06:50;93710.19;;;13.52;79.31
36378;BME280;22402;42.746;23.606;2023-05-11T01:12:14;93702.13;;;13.45;79.19
36378;BME280;22402;42.746;23.606;2023-05-11T01:14:54;93711.16;;;13.51;79.14
36378;BME280;22402;42.746;23.606;2023-05-11T01:17:33;93713.09;;;13.49;78.91
36378;BME280;22402;42.746;23.606;2023-05-11T01:20:14;93725.38;;;13.49;79.27
36378;BME280;22402;42.746;23.606;2023-05-11T01:26:08;93709.97;;;13.45;79.18
36378;BME280;22402;42.746;23.606;2023-05-11T01:31:16;93722.41;;;13.43;79.15
36378;BME280;22402;42.746;23.606;2023-05-11T01:33:57;93721.75;;;13.41;79.43
36378;BME280;22402;42.746;23.606;2023-05-11T01:36:27;93713.91;;;13.41;79.37
36378;BME280;22402;42.746;23.606;2023-05-11T01:38:59;93726.16;;;13.41;79.51
36378;BME280;22402;42.746;23.606;2023-05-11T01:41:27;93718.47;;;13.39;79.37
36378;BME280;22402;42.746;23.606;2023-05-11T01:43:56;93719.28;;;13.40;79.34
36378;BME280;22402;42.746;23.606;2023-05-11T01:46:25;93717.78;;;13.37;79.59
36378;BME280;22402;42.746;23.606;2023-05-11T01:48:53;93723.03;;;13.37;79.21
36378;BME280;22402;42.746;23.606;2023-05-11T01:51:21;93727.28;;;13.38;79.12
36378;BME280;22402;42.746;23.606;2023-05-11T01:53:48;93718.91;;;13.35;79.29
36378;BME280;22402;42.746;23.606;2023-05-11T01:56:15;93723.63;;;13.31;79.41
36378;BME280;22402;42.746;23.606;2023-05-11T01:58:44;93725.44;;;13.31;79.37
36378;BME280;22402;42.746;23.606;2023-05-11T02:01:12;93723.63;;;13.31;79.54
36378;BME280;22402;42.746;23.606;2023-05-11T02:03:38;93722.16;;;13.29;79.36
36378;BME280;22402;42.746;23.606;2023-05-11T02:06:06;93719.84;;;13.26;79.55
36378;BME280;22402;42.746;23.606;2023-05-11T02:08:33;93724.25;;;13.25;79.79
36378;BME280;22402;42.746;23.606;2023-05-11T02:11:01;93714.88;;;13.22;79.51
36378;BME280;22402;42.746;23.606;2023-05-11T02:13:28;93719.59;;;13.19;79.77
36378;BME280;22402;42.746;23.606;2023-05-11T02:15:56;93717.66;;;13.21;79.68
36378;BME280;22402;42.746;23.606;2023-05-11T02:18:23;93716.31;;;13.17;79.58
36378;BME280;22402;42.746;23.606;2023-05-11T02:20:48;93727.47;;;13.19;79.75
36378;BME280;22402;42.746;23.606;2023-05-11T02:23:15;93724.84;;;13.19;79.63
36378;BME280;22402;42.746;23.606;2023-05-11T02:25:42;93723.22;;;13.18;79.45
36378;BME280;22402;42.746;23.606;2023-05-11T02:28:07;93717.97;;;13.18;79.81
36378;BME280;22402;42.746;23.606;2023-05-11T02:30:39;93719.91;;;13.16;79.41
36378;BME280;22402;42.746;23.606;2023-05-11T02:33:06;93717.44;;;13.14;79.48
36378;BME280;22402;42.746;23.606;2023-05-11T02:35:37;93717.72;;;13.11;79.66
36378;BME280;22402;42.746;23.606;2023-05-11T02:38:04;93715.97;;;13.12;79.60
36378;BME280;22402;42.746;23.606;2023-05-11T02:40:31;93717.91;;;13.10;79.76
36378;BME280;22402;42.746;23.606;2023-05-11T02:43:09;93718.03;;;13.08;79.78
36378;BME280;22402;42.746;23.606;2023-05-11T02:48:18;93710.34;;;13.07;80.05
36378;BME280;22402;42.746;23.606;2023-05-11T02:50:45;93700.19;;;13.04;80.18
36378;BME280;22402;42.746;23.606;2023-05-11T02:58:32;93711.78;;;13.01;80.21
36378;BME280;22402;42.746;23.606;2023-05-11T03:00:58;93710.16;;;13.00;79.98
36378;BME280;22402;42.746;23.606;2023-05-11T03:03:25;93720.63;;;13.00;80.54
36378;BME280;22402;42.746;23.606;2023-05-11T03:05:51;93708.78;;;12.96;80.18
36378;BME280;22402;42.746;23.606;2023-05-11T03:08:17;93711.28;;;12.97;80.44
36378;BME280;22402;42.746;23.606;2023-05-11T03:10:43;93712.22;;;12.96;80.47
36378;BME280;22402;42.746;23.606;2023-05-11T03:13:09;93713.22;;;12.95;80.16
36378;BME280;22402;42.746;23.606;2023-05-11T03:15:36;93709.09;;;12.93;80.13
36378;BME280;22402;42.746;23.606;2023-05-11T03:18:04;93710.59;;;12.95;80.21
36378;BME280;22402;42.746;23.606;2023-05-11T03:20:30;93704.84;;;12.92;80.51
36378;BME280;22402;42.746;23.606;2023-05-11T03:22:56;93711.88;;;12.91;80.42
36378;BME280;22402;42.746;23.606;2023-05-11T03:25:22;93709.91;;;12.93;80.69
36378;BME280;22402;42.746;23.606;2023-05-11T03:27:49;93702.91;;;12.94;80.59
36378;BME280;22402;42.746;23.606;2023-05-11T03:30:17;93705.53;;;12.94;80.38
36378;BME280;22402;42.746;23.606;2023-05-11T03:32:44;93707.28;;;12.93;80.92
36378;BME280;22402;42.746;23.606;2023-05-11T03:35:09;93704.69;;;12.93;80.75
36378;BME280;22402;42.746;23.606;2023-05-11T03:37:36;93710.75;;;12.94;80.99
36378;BME280;22402;42.746;23.606;2023-05-11T03:40:02;93712.22;;;12.96;81.00
36378;BME280;22402;42.746;23.606;2023-05-11T03:42:29;93709.09;;;12.93;80.89
36378;BME280;22402;42.746;23.606;2023-05-11T03:44:56;93717.63;;;12.95;81.24
36378;BME280;22402;42.746;23.606;2023-05-11T03:47:25;93716.50;;;12.97;80.96
36378;BME280;22402;42.746;23.606;2023-05-11T03:49:53;93718.97;;;12.99;80.96
36378;BME280;22402;42.746;23.606;2023-05-11T03:52:20;93717.03;;;13.01;81.23
36378;BME280;22402;42.746;23.606;2023-05-11T03:54:46;93724.88;;;13.01;81.03
36378;BME280;22402;42.746;23.606;2023-05-11T03:57:13;93727.31;;;13.03;81.10
36378;BME280;22402;42.746;23.606;2023-05-11T03:59:38;93727.31;;;13.03;81.15
36378;BME280;22402;42.746;23.606;2023-05-11T04:02:04;93735.84;;;13.05;81.28
36378;BME280;22402;42.746;23.606;2023-05-11T04:04:30;93728.31;;;13.02;80.94
36378;BME280;22402;42.746;23.606;2023-05-11T04:06:56;93729.81;;;13.04;81.36
36378;BME280;22402;42.746;23.606;2023-05-11T04:09:22;93724.56;;;13.04;81.48
36378;BME280;22402;42.746;23.606;2023-05-11T04:11:48;93731.31;;;13.07;81.41
36378;BME280;22402;42.746;23.606;2023-05-11T04:14:13;93729.34;;;13.09;81.41
36378;BME280;22402;42.746;23.606;2023-05-11T04:16:38;93731.13;;;13.08;81.25
36378;BME280;22402;42.746;23.606;2023-05-11T04:19:06;93736.91;;;13.12;81.50
36378;BME280;22402;42.746;23.606;2023-05-11T04:21:33;93736.06;;;13.11;81.56
36378;BME280;22402;42.746;23.606;2023-05-11T04:23:58;93743.78;;;13.13;81.51
36378;BME280;22402;42.746;23.606;2023-05-11T04:26:23;93745.09;;;13.17;81.28
36378;BME280;22402;42.746;23.606;2023-05-11T04:28:50;93729.88;;;13.12;81.58
36378;BME280;22402;42.746;23.606;2023-05-11T04:31:15;93749.38;;;13.18;81.74
36378;BME280;22402;42.746;23.606;2023-05-11T04:33:41;93746.47;;;13.21;81.68
36378;BME280;22402;42.746;23.606;2023-05-11T04:36:06;93743.31;;;13.17;81.63
36378;BME280;22402;42.746;23.606;2023-05-11T04:38:32;93739.56;;;13.20;81.52
36378;BME280;22402;42.746;23.606;2023-05-11T04:41:02;93740.78;;;13.26;81.69
36378;BME280;22402;42.746;23.606;2023-05-11T04:43:27;93746.84;;;13.26;81.62
36378;BME280;22402;42.746;23.606;2023-05-11T04:45:53;93746.00;;;13.26;81.71
36378;BME280;22402;42.746;23.606;2023-05-11T04:48:18;93746.84;;;13.26;81.77
36378;BME280;22402;42.746;23.606;2023-05-11T04:50:44;93747.50;;;13.28;81.65
36378;BME280;22402;42.746;23.606;2023-05-11T04:53:09;93749.81;;;13.31;81.81
36378;BME280;22402;42.746;23.606;2023-05-11T04:55:35;93738.75;;;13.19;81.87
36378;BME280;22402;42.746;23.606;2023-05-11T04:58:00;93735.00;;;13.22;81.67
36378;BME280;22402;42.746;23.606;2023-05-11T05:00:26;93756.38;;;13.35;81.73
36378;BME280;22402;42.746;23.606;2023-05-11T05:02:51;93754.44;;;13.37;81.68
36378;BME280;22402;42.746;23.606;2023-05-11T05:05:17;93746.44;;;13.39;81.98
36378;BME280;22402;42.746;23.606;2023-05-11T05:07:42;93752.34;;;13.41;81.79
36378;BME280;22402;42.746;23.606;2023-05-11T05:10:08;93759.06;;;13.43;81.78
36378;BME280;22402;42.746;23.606;2023-05-11T05:12:37;93764.00;;;13.47;81.80
36378;BME280;22402;42.746;23.606;2023-05-11T05:15:03;93765.78;;;13.46;81.89
36378;BME280;22402;42.746;23.606;2023-05-11T05:17:30;93773.22;;;13.51;81.93
36378;BME280;22402;42.746;23.606;2023-05-11T05:19:55;93768.63;;;13.53;81.99
36378;BME280;22402;42.746;23.606;2023-05-11T05:22:22;93771.59;;;13.58;82.02
36378;BME280;22402;42.746;23.606;2023-05-11T05:24:48;93771.97;;;13.63;81.90
36378;BME280;22402;42.746;23.606;2023-05-11T05:27:13;93762.13;;;13.65;82.09
36378;BME280;22402;42.746;23.606;2023-05-11T05:29:39;93767.91;;;13.68;82.09
36378;BME280;22402;42.746;23.606;2023-05-11T05:32:04;93767.59;;;13.72;81.98
36378;BME280;22402;42.746;23.606;2023-05-11T05:34:30;93763.19;;;13.72;82.09
36378;BME280;22402;42.746;23.606;2023-05-11T05:36:58;93768.63;;;13.79;82.08
36378;BME280;22402;42.746;23.606;2023-05-11T05:39:24;93769.13;;;13.82;82.00
36378;BME280;22402;42.746;23.606;2023-05-11T05:41:49;93770.47;;;13.86;82.04
36378;BME280;22402;42.746;23.606;2023-05-11T05:44:15;93764.38;;;13.86;82.07
36378;BME280;22402;42.746;23.606;2023-05-11T05:46:41;93772.28;;;13.94;82.03
36378;BME280;22402;42.746;23.606;2023-05-11T05:49:06;93765.41;;;13.93;81.98
36378;BME280;22402;42.746;23.606;2023-05-11T05:51:32;93772.78;;;13.98;82.24
36378;BME280;22402;42.746;23.606;2023-05-11T05:53:57;93768.59;;;14.05;82.18
36378;BME280;22402;42.746;23.606;2023-05-11T05:56:23;93772.06;;;14.13;82.35
36378;BME280;22402;42.746;23.606;2023-05-11T05:58:48;93751.72;;;14.07;82.09
36378;BME280;22402;42.746;23.606;2023-05-11T06:01:14;93758.78;;;14.15;82.23
36378;BME280;22402;42.746;23.606;2023-05-11T06:03:39;93776.22;;;14.32;82.08
36378;BME280;22402;42.746;23.606;2023-05-11T06:06:06;93780.50;;;14.42;82.43
36378;BME280;22402;42.746;23.606;2023-05-11T06:08:32;93778.91;;;14.49;82.21
36378;BME280;22402;42.746;23.606;2023-05-11T06:10:57;93789.75;;;14.54;82.04
36378;BME280;22402;42.746;23.606;2023-05-11T06:13:23;93778.63;;;14.60;82.46
36378;BME280;22402;42.746;23.606;2023-05-11T06:15:49;93789.81;;;14.70;82.35
36378;BME280;22402;42.746;23.606;2023-05-11T06:18:14;93794.41;;;14.76;82.21
36378;BME280;22402;42.746;23.606;2023-05-11T06:20:40;93787.84;;;14.80;82.27
36378;BME280;22402;42.746;23.606;2023-05-11T06:23:05;93791.31;;;14.89;82.09
36378;BME280;22402;42.746;23.606;2023-05-11T06:25:34;93803.63;;;14.97;82.74
36378;BME280;22402;42.746;23.606;2023-05-11T06:28:01;93795.44;;;15.00;82.25
36378;BME280;22402;42.746;23.606;2023-05-11T06:30:26;93794.47;;;15.09;82.01
36378;BME280;22402;42.746;23.606;2023-05-11T06:32:52;93789.69;;;15.13;82.62
36378;BME280;22402;42.746;23.606;2023-05-11T06:35:17;93796.59;;;15.22;82.20
36378;BME280;22402;42.746;23.606;2023-05-11T06:37:43;93793.97;;;15.30;82.43
36378;BME280;22402;42.746;23.606;2023-05-11T06:40:09;93795.13;;;15.36;82.66
36378;BME280;22402;42.746;23.606;2023-05-11T06:42:34;93796.91;;;15.43;82.62
36378;BME280;22402;42.746;23.606;2023-05-11T06:45:00;93795.44;;;15.49;82.33
36378;BME280;22402;42.746;23.606;2023-05-11T07:23:27;93784.47;;;16.17;83.07
36378;BME280;22402;42.746;23.606;2023-05-11T07:25:53;93779.22;;;16.17;82.93
36378;BME280;22402;42.746;23.606;2023-05-11T07:28:21;93786.59;;;16.30;83.17
36378;BME280;22402;42.746;23.606;2023-05-11T07:48:27;93792.06;;;17.14;82.30
36378;BME280;22402;42.746;23.606;2023-05-11T07:50:52;93789.75;;;17.19;82.70
36378;BME280;22402;42.746;23.606;2023-05-11T07:53:18;93798.50;;;17.35;82.64
36378;BME280;22402;42.746;23.606;2023-05-11T07:55:43;93798.25;;;17.44;82.37
36378;BME280;22402;42.746;23.606;2023-05-11T07:58:09;93799.66;;;17.55;82.57
36378;BME280;22402;42.746;23.606;2023-05-11T08:00:34;93782.03;;;17.56;82.49
36378;BME280;22402;42.746;23.606;2023-05-11T08:03:00;93812.66;;;17.80;82.36
36378;BME280;22402;42.746;23.606;2023-05-11T08:05:26;93806.75;;;17.92;82.47
36378;BME280;22402;42.746;23.606;2023-05-11T08:07:51;93810.59;;;18.05;82.50
36378;BME280;22402;42.746;23.606;2023-05-11T08:10:17;93801.41;;;18.15;82.71
36378;BME280;22402;42.746;23.606;2023-05-11T08:12:42;93798.13;;;18.28;82.66
36378;BME280;22402;42.746;23.606;2023-05-11T08:15:08;93792.78;;;18.36;82.67
36378;BME280;22402;42.746;23.606;2023-05-11T08:17:34;93799.22;;;18.49;83.09
36378;BME280;22402;42.746;23.606;2023-05-11T08:20:00;93799.56;;;18.60;82.86
36378;BME280;22402;42.746;23.606;2023-05-11T08:22:26;93803.56;;;18.71;82.81
36378;BME280;22402;42.746;23.606;2023-05-11T08:24:51;93796.56;;;18.78;82.79
36378;BME280;22402;42.746;23.606;2023-05-11T08:27:17;93805.28;;;18.94;83.16
36378;BME280;22402;42.746;23.606;2023-05-11T08:29:43;93802.16;;;19.05;83.18
36378;BME280;22402;42.746;23.606;2023-05-11T08:32:08;93799.00;;;19.16;83.38
36378;BME280;22402;42.746;23.606;2023-05-11T08:34:34;93802.78;;;19.28;83.32
36378;BME280;22402;42.746;23.606;2023-05-11T08:37:05;93793.09;;;19.35;83.43
36378;BME280;22402;42.746;23.606;2023-05-11T08:39:32;93798.91;;;19.46;80.88
36378;BME280;22402;42.746;23.606;2023-05-11T08:42:01;93798.75;;;19.54;77.85
36378;BME280;22402;42.746;23.606;2023-05-11T08:44:35;93777.59;;;19.54;75.92
36378;BME280;22402;42.746;23.606;2023-05-11T08:47:49;93774.56;;;19.57;75.26
36378;BME280;22402;42.746;23.606;2023-05-11T08:50:35;93788.19;;;19.75;75.13
36378;BME280;22402;42.746;23.606;2023-05-11T08:53:03;93771.84;;;19.72;74.67
36378;BME280;22402;42.746;23.606;2023-05-11T08:55:28;93780.84;;;19.77;74.75
36378;BME280;22402;42.746;23.606;2023-05-11T08:57:57;93755.22;;;19.78;74.75
36378;BME280;22402;42.746;23.606;2023-05-11T09:00:25;93789.75;;;19.98;74.86
36378;BME280;22402;42.746;23.606;2023-05-11T09:02:53;93794.94;;;20.13;74.72
36378;BME280;22402;42.746;23.606;2023-05-11T09:05:20;93815.38;;;20.25;74.55
36378;BME280;22402;42.746;23.606;2023-05-11T09:07:46;93767.66;;;20.12;73.77
36378;BME280;22402;42.746;23.606;2023-05-11T09:10:14;93784.25;;;20.27;73.82
36378;BME280;22402;42.746;23.606;2023-05-11T09:12:40;93790.22;;;20.43;73.52
36378;BME280;22402;42.746;23.606;2023-05-11T09:15:06;93761.47;;;20.33;73.58
36378;BME280;22402;42.746;23.606;2023-05-11T09:17:32;93746.78;;;20.31;73.10
36378;BME280;22402;42.746;23.606;2023-05-11T09:19:59;93755.28;;;20.54;72.59
36378;BME280;22402;42.746;23.606;2023-05-11T09:22:25;93750.19;;;20.53;72.56
36378;BME280;22402;42.746;23.606;2023-05-11T09:24:51;93759.00;;;20.66;72.90
36378;BME280;22402;42.746;23.606;2023-05-11T09:27:17;93753.69;;;20.66;72.22
36378;BME280;22402;42.746;23.606;2023-05-11T09:29:42;93734.16;;;20.67;71.96
36378;BME280;22402;42.746;23.606;2023-05-11T09:32:08;93730.50;;;20.82;71.23
36378;BME280;22402;42.746;23.606;2023-05-11T09:34:33;93775.22;;;21.11;70.56
36378;BME280;22402;42.746;23.606;2023-05-11T09:36:59;93739.94;;;21.04;69.64
36378;BME280;22402;42.746;23.606;2023-05-11T09:39:29;93760.00;;;21.33;68.63
36378;BME280;22402;42.746;23.606;2023-05-11T09:42:15;93753.91;;;21.46;67.91
36378;BME280;22402;42.746;23.606;2023-05-11T09:44:41;93757.59;;;21.45;67.58
36378;BME280;22402;42.746;23.606;2023-05-11T09:47:11;93745.53;;;21.56;66.45
36378;BME280;22402;42.746;23.606;2023-05-11T09:49:38;93737.41;;;21.51;65.56
36378;BME280;22402;42.746;23.606;2023-05-11T09:52:12;93728.19;;;21.67;65.13
36378;BME280;22402;42.746;23.606;2023-05-11T09:54:43;93763.28;;;21.89;64.38
36378;BME280;22402;42.746;23.606;2023-05-11T09:57:28;93755.09;;;22.03;63.91
36378;BME280;22402;42.746;23.606;2023-05-11T09:59:58;93735.09;;;22.01;63.21
36378;BME280;22402;42.746;23.606;2023-05-11T10:02:25;93738.53;;;22.15;63.12
36378;BME280;22402;42.746;23.606;2023-05-11T10:04:53;93731.00;;;22.18;62.69
36378;BME280;22402;42.746;23.606;2023-05-11T10:09:53;93735.88;;;22.35;62.20
36378;BME280;22402;42.746;23.606;2023-05-11T10:12:21;93707.28;;;22.30;61.93
36378;BME280;22402;42.746;23.606;2023-05-11T10:14:50;93734.38;;;22.52;61.65
36378;BME280;22402;42.746;23.606;2023-05-11T10:17:16;93728.63;;;22.62;61.29
36378;BME280;22402;42.746;23.606;2023-05-11T10:19:42;93716.94;;;22.63;60.93
36378;BME280;22402;42.746;23.606;2023-05-11T10:22:08;93724.28;;;22.74;60.89
36378;BME280;22402;42.746;23.606;2023-05-11T10:24:35;93723.19;;;22.88;60.75
36378;BME280;22402;42.746;23.606;2023-05-11T10:27:01;93718.88;;;22.87;60.69
36378;BME280;22402;42.746;23.606;2023-05-11T10:29:28;93712.94;;;22.92;60.42
36378;BME280;22402;42.746;23.606;2023-05-11T10:31:54;93701.28;;;23.00;60.36
36378;BME280;22402;42.746;23.606;2023-05-11T10:34:23;93713.00;;;23.17;60.45
36378;BME280;22402;42.746;23.606;2023-05-11T10:36:51;93717.59;;;23.35;59.88
36378;BME280;22402;42.746;23.606;2023-05-11T10:39:17;93685.13;;;23.26;59.58
36378;BME280;22402;42.746;23.606;2023-05-11T10:42:05;93715.81;;;23.54;58.77
36378;BME280;22402;42.746;23.606;2023-05-11T10:47:41;93681.22;;;23.54;57.75
36378;BME280;22402;42.746;23.606;2023-05-11T11:01:50;93678.38;;;23.99;56.38
36378;BME280;22402;42.746;23.606;2023-05-11T11:04:23;93682.09;;;24.16;55.50
36378;BME280;22402;42.746;23.606;2023-05-11T11:07:03;93685.34;;;24.37;55.56
36378;BME280;22402;42.746;23.606;2023-05-11T11:09:55;93689.28;;;24.52;54.79
36378;BME280;22402;42.746;23.606;2023-05-11T11:12:23;93662.28;;;24.49;54.19
36378;BME280;22402;42.746;23.606;2023-05-11T11:15:02;93679.28;;;24.66;54.19
36378;BME280;22402;42.746;23.606;2023-05-11T11:17:33;93679.38;;;24.90;53.59
36378;BME280;22402;42.746;23.606;2023-05-11T11:20:00;93679.19;;;25.03;54.19
36378;BME280;22402;42.746;23.606;2023-05-11T11:25:07;93676.16;;;25.30;51.10
36378;BME280;22402;42.746;23.606;2023-05-11T11:32:39;93639.16;;;25.68;48.02
36378;BME280;22402;42.746;23.606;2023-05-11T11:38:07;93671.44;;;26.02;47.91
36378;BME280;22402;42.746;23.606;2023-05-11T11:40:47;93675.84;;;26.08;48.07
36378;BME280;22402;42.746;23.606;2023-05-11T11:43:18;93670.66;;;26.02;46.81
36378;BME280;22402;42.746;23.606;2023-05-11T11:45:58;93654.72;;;25.72;42.44
36378;BME280;22402;42.746;23.606;2023-05-11T11:48:37;93685.75;;;25.84;39.83
36378;BME280;22402;42.746;23.606;2023-05-11T11:51:09;93666.66;;;25.57;39.09
36378;BME280;22402;42.746;23.606;2023-05-11T12:01:18;93672.47;;;25.12;36.22
36378;BME280;22402;42.746;23.606;2023-05-11T12:03:46;93677.69;;;24.77;35.89
36378;BME280;22402;42.746;23.606;2023-05-11T12:06:43;93664.59;;;24.39;35.99
36378;BME280;22402;42.746;23.606;2023-05-11T12:09:16;93654.94;;;24.07;36.68
36378;BME280;22402;42.746;23.606;2023-05-11T12:11:44;93660.81;;;23.91;37.29
36378;BME280;22402;42.746;23.606;2023-05-11T12:14:11;93668.97;;;23.78;37.54
36378;BME280;22402;42.746;23.606;2023-05-11T12:16:36;93649.16;;;23.67;38.04
36378;BME280;22402;42.746;23.606;2023-05-11T12:19:02;93652.34;;;23.57;37.89
36378;BME280;22402;42.746;23.606;2023-05-11T12:21:29;93652.59;;;23.49;38.50
36378;BME280;22402;42.746;23.606;2023-05-11T12:24:55;93665.38;;;23.65;40.64
36378;BME280;22402;42.746;23.606;2023-05-11T12:27:32;93656.72;;;23.95;42.57
36378;BME280;22402;42.746;23.606;2023-05-11T12:30:25;93651.16;;;24.52;39.02
36378;BME280;22402;42.746;23.606;2023-05-11T12:32:51;93645.66;;;24.65;37.24
36378;BME280;22402;42.746;23.606;2023-05-11T12:35:28;93640.91;;;24.67;37.81
36378;BME280;22402;42.746;23.606;2023-05-11T12:37:55;93649.25;;;24.71;36.83
36378;BME280;22402;42.746;23.606;2023-05-11T12:40:21;93639.06;;;24.68;36.57
36378;BME280;22402;42.746;23.606;2023-05-11T12:43:15;93626.72;;;24.55;37.78
36378;BME280;22402;42.746;23.606;2023-05-11T12:45:41;93636.19;;;24.51;38.01
36378;BME280;22402;42.746;23.606;2023-05-11T12:48:08;93627.75;;;24.36;36.86
36378;BME280;22402;42.746;23.606;2023-05-11T12:50:43;93610.31;;;24.03;37.29
36378;BME280;22402;42.746;23.606;2023-05-11T12:55:39;93619.28;;;23.72;38.31
36378;BME280;22402;42.746;23.606;2023-05-11T12:58:11;93617.38;;;23.54;39.36
36378;BME280;22402;42.746;23.606;2023-05-11T13:00:58;93619.81;;;23.30;40.57
36378;BME280;22402;42.746;23.606;2023-05-11T13:03:26;93601.66;;;23.27;42.65
36378;BME280;22402;42.746;23.606;2023-05-11T13:06:05;93608.34;;;23.55;44.24
36378;BME280;22402;42.746;23.606;2023-05-11T13:08:48;93605.00;;;23.84;44.31
36378;BME280;22402;42.746;23.606;2023-05-11T13:11:20;93613.72;;;24.10;44.05
36378;BME280;22402;42.746;23.606;2023-05-11T13:13:47;93600.84;;;24.25;43.94
36378;BME280;22402;42.746;23.606;2023-05-11T13:16:27;93597.19;;;24.38;44.17
36378;BME280;22402;42.746;23.606;2023-05-11T13:19:02;93601.25;;;24.59;44.03
36378;BME280;22402;42.746;23.606;2023-05-11T13:21:28;93598.84;;;24.69;44.00
36378;BME280;22402;42.746;23.606;2023-05-11T13:23:54;93599.56;;;24.76;44.42
36378;BME280;22402;42.746;23.606;2023-05-11T13:26:24;93605.16;;;24.87;44.30
36378;BME280;22402;42.746;23.606;2023-05-11T13:28:51;93605.88;;;24.94;44.22
36378;BME280;22402;42.746;23.606;2023-05-11T13:31:16;93604.59;;;24.96;44.34
36378;BME280;22402;42.746;23.606;2023-05-11T13:33:45;93600.88;;;24.97;44.88
36378;BME280;22402;42.746;23.606;2023-05-11T13:36:11;93606.81;;;24.99;44.51
36378;BME280;22402;42.746;23.606;2023-05-11T13:38:36;93598.81;;;24.99;44.84
36378;BME280;22402;42.746;23.606;2023-05-11T13:41:02;93607.75;;;25.05;44.40
36378;BME280;22402;42.746;23.606;2023-05-11T13:43:27;93605.09;;;25.05;44.72
36378;BME280;22402;42.746;23.606;2023-05-11T13:45:54;93599.16;;;25.03;45.31
36378;BME280;22402;42.746;23.606;2023-05-11T13:48:20;93601.84;;;25.03;44.83
36378;BME280;22402;42.746;23.606;2023-05-11T13:50:52;93609.84;;;25.03;44.94
36378;BME280;22402;42.746;23.606;2023-05-11T13:53:24;93592.66;;;24.99;45.34
36378;BME280;22402;42.746;23.606;2023-05-11T13:55:51;93576.41;;;24.89;44.93
36378;BME280;22402;42.746;23.606;2023-05-11T13:58:17;93611.00;;;25.07;44.91
36378;BME280;22402;42.746;23.606;2023-05-11T14:00:42;93612.63;;;25.08;46.94
36378;BME280;22402;42.746;23.606;2023-05-11T14:03:08;93597.09;;;25.05;48.15
36378;BME280;22402;42.746;23.606;2023-05-11T14:05:34;93612.63;;;25.08;50.00
36378;BME280;22402;42.746;23.606;2023-05-11T14:08:00;93614.00;;;24.99;50.24
36378;BME280;22402;42.746;23.606;2023-05-11T14:10:25;93604.72;;;24.90;50.43
36378;BME280;22402;42.746;23.606;2023-05-11T14:12:51;93604.88;;;24.76;50.53
36378;BME280;22402;42.746;23.606;2023-05-11T14:15:16;93609.97;;;24.66;50.22
36378;BME280;22402;42.746;23.606;2023-05-11T14:17:42;93601.69;;;24.56;50.15
36378;BME280;22402;42.746;23.606;2023-05-11T14:20:08;93605.50;;;24.48;50.32
36378;BME280;22402;42.746;23.606;2023-05-11T14:22:34;93600.09;;;24.37;50.46
36378;BME280;22402;42.746;23.606;2023-05-11T14:24:59;93607.78;;;24.26;50.86
36378;BME280;22402;42.746;23.606;2023-05-11T14:27:26;93604.84;;;24.16;51.22
36378;BME280;22402;42.746;23.606;2023-05-11T14:29:52;93602.13;;;24.04;51.38
36378;BME280;22402;42.746;23.606;2023-05-11T14:32:18;93605.31;;;23.95;51.48
36378;BME280;22402;42.746;23.606;2023-05-11T14:34:43;93608.72;;;23.83;51.77
36378;BME280;22402;42.746;23.606;2023-05-11T14:37:09;93602.50;;;23.71;52.58
36378;BME280;22402;42.746;23.606;2023-05-11T14:39:35;93610.56;;;23.58;53.55
36378;BME280;22402;42.746;23.606;2023-05-11T14:42:00;93606.56;;;23.49;54.45
36378;BME280;22402;42.746;23.606;2023-05-11T14:44:26;93615.22;;;23.44;54.65